createdAt,value
2018-06-24T00:00:24.991Z,1018.05
2018-06-24T00:01:33.630Z,1018.06
2018-06-24T00:02:42.272Z,1018.03
2018-06-24T00:03:50.919Z,1018.02
2018-06-24T00:04:59.573Z,1018.01
2018-06-24T00:06:08.489Z,1018.05
2018-06-24T00:07:17.129Z,1018
2018-06-24T00:08:26.291Z,1018.02
2018-06-24T00:09:34.949Z,1017.96
2018-06-24T00:10:43.583Z,1017.98
2018-06-24T00:11:52.230Z,1017.97
2018-06-24T00:13:00.868Z,1017.91
2018-06-24T00:14:09.549Z,1017.91
2018-06-24T00:15:18.162Z,1017.91
2018-06-24T00:16:26.801Z,1017.84
2018-06-24T00:17:35.454Z,1017.86
2018-06-24T00:18:44.093Z,1017.88
2018-06-24T00:19:52.733Z,1017.87
2018-06-24T00:21:01.376Z,1017.86
2018-06-24T00:22:10.015Z,1017.85
2018-06-24T00:23:18.669Z,1017.8
2018-06-24T00:24:27.583Z,1017.84
2018-06-24T00:25:36.231Z,1017.78
2018-06-24T00:26:45.130Z,1017.79
2018-06-24T00:27:53.783Z,1017.75
2018-06-24T00:29:02.424Z,1017.78
2018-06-24T00:30:11.072Z,1017.8
2018-06-24T00:31:19.965Z,1017.82
2018-06-24T00:32:28.899Z,1017.79
2018-06-24T00:33:37.803Z,1017.77
2018-06-24T00:34:46.711Z,1017.73
2018-06-24T00:35:55.611Z,1017.69
2018-06-24T00:37:04.531Z,1017.7
2018-06-24T00:38:13.173Z,1017.62
2018-06-24T00:39:21.824Z,1017.66
2018-06-24T00:40:30.465Z,1017.63
2018-06-24T00:41:39.097Z,1017.62
2018-06-24T00:42:47.745Z,1017.62
2018-06-24T00:43:56.383Z,1017.6
2018-06-24T00:45:05.036Z,1017.56
2018-06-24T00:46:13.670Z,1017.57
2018-06-24T00:47:22.317Z,1017.55
2018-06-24T00:48:30.961Z,1017.52
2018-06-24T00:49:39.616Z,1017.51
2018-06-24T00:50:48.251Z,1017.49
2018-06-24T00:51:56.898Z,1017.54
2018-06-24T00:53:05.539Z,1017.51
2018-06-24T00:54:14.191Z,1017.56
2018-06-24T00:55:22.828Z,1017.54
2018-06-24T00:56:31.733Z,1017.53
2018-06-24T00:57:40.375Z,1017.51
2018-06-24T00:58:49.020Z,1017.5
2018-06-24T00:59:57.933Z,1017.52
2018-06-24T01:01:06.873Z,1017.52
2018-06-24T01:02:15.519Z,1017.43
2018-06-24T01:03:24.154Z,1017.43
2018-06-24T01:04:32.806Z,1017.44
2018-06-24T01:05:41.445Z,1017.42
2018-06-24T01:06:50.093Z,1017.39
2018-06-24T01:07:58.732Z,1017.37
2018-06-24T01:09:07.921Z,1017.36
2018-06-24T01:10:16.564Z,1017.34
2018-06-24T01:11:25.206Z,1017.35
2018-06-24T01:12:33.843Z,1017.37
2018-06-24T01:13:42.488Z,1017.35
2018-06-24T01:14:51.138Z,1017.35
2018-06-24T01:15:59.783Z,1017.37
2018-06-24T01:17:08.430Z,1017.36
2018-06-24T01:18:17.335Z,1017.37
2018-06-24T01:19:25.979Z,1017.38
2018-06-24T01:20:34.626Z,1017.36
2018-06-24T01:21:43.267Z,1017.39
2018-06-24T01:22:51.907Z,1017.35
2018-06-24T01:24:00.550Z,1017.36
2018-06-24T01:25:09.194Z,1017.39
2018-06-24T01:26:17.840Z,1017.4
2018-06-24T01:27:26.490Z,1017.37
2018-06-24T01:28:35.130Z,1017.39
2018-06-24T01:29:44.042Z,1017.41
2018-06-24T01:30:52.689Z,1017.41
2018-06-24T01:32:01.332Z,1017.41
2018-06-24T01:33:09.975Z,1017.39
2018-06-24T01:34:18.616Z,1017.39
2018-06-24T01:35:27.255Z,1017.33
2018-06-24T01:36:35.906Z,1017.31
2018-06-24T01:37:44.548Z,1017.29
2018-06-24T01:38:53.190Z,1017.28
2018-06-24T01:40:01.829Z,1017.29
2018-06-24T01:41:10.476Z,1017.3
2018-06-24T01:42:19.385Z,1017.29
2018-06-24T01:43:28.291Z,1017.26
2018-06-24T01:44:36.930Z,1017.28
2018-06-24T01:45:45.577Z,1017.27
2018-06-24T01:46:54.225Z,1017.28
2018-06-24T01:48:02.872Z,1017.31
2018-06-24T01:49:11.510Z,1017.33
2018-06-24T01:50:20.157Z,1017.34
2018-06-24T01:51:28.798Z,1017.33
2018-06-24T01:52:37.444Z,1017.32
2018-06-24T01:53:46.089Z,1017.32
2018-06-24T01:54:54.993Z,1017.32
2018-06-24T01:56:03.900Z,1017.34
2018-06-24T01:57:12.541Z,1017.39
2018-06-24T01:58:21.458Z,1017.38
2018-06-24T01:59:30.097Z,1017.4
2018-06-24T02:00:39.004Z,1017.4
2018-06-24T02:01:47.646Z,1017.39
2018-06-24T02:02:56.298Z,1017.42
2018-06-24T02:04:04.931Z,1017.44
2018-06-24T02:05:13.578Z,1017.45
2018-06-24T02:06:22.218Z,1017.47
2018-06-24T02:07:30.865Z,1017.44
2018-06-24T02:08:39.506Z,1017.39
2018-06-24T02:09:48.149Z,1017.34
2018-06-24T02:10:56.792Z,1017.26
2018-06-24T02:12:05.430Z,1017.2
2018-06-24T02:13:14.342Z,1017.23
2018-06-24T02:14:22.987Z,1017.22
2018-06-24T02:15:31.630Z,1017.27
2018-06-24T02:16:40.534Z,1017.22
2018-06-24T02:17:49.450Z,1017.2
2018-06-24T02:18:58.095Z,1017.17
2018-06-24T02:20:06.731Z,1017.17
2018-06-24T02:21:15.368Z,1017.13
2018-06-24T02:22:24.014Z,1017.08
2018-06-24T02:23:32.656Z,1017.06
2018-06-24T02:24:41.584Z,1017.12
2018-06-24T02:25:50.759Z,1017.15
2018-06-24T02:26:59.408Z,1017.12
2018-06-24T02:28:08.051Z,1017.1
2018-06-24T02:29:16.699Z,1017.07
2018-06-24T02:30:25.611Z,1017.07
2018-06-24T02:31:34.259Z,1017.09
2018-06-24T02:32:42.907Z,1017.12
2018-06-24T02:33:51.819Z,1017.14
2018-06-24T02:35:00.732Z,1017.15
2018-06-24T02:36:09.373Z,1017.17
2018-06-24T02:37:18.019Z,1017.17
2018-06-24T02:38:26.930Z,1017.15
2018-06-24T02:39:35.588Z,1017.12
2018-06-24T02:40:44.485Z,1017.14
2018-06-24T02:41:53.138Z,1017.13
2018-06-24T02:43:01.785Z,1017.15
2018-06-24T02:44:10.450Z,1017.17
2018-06-24T02:45:19.358Z,1017.16
2018-06-24T02:46:28.266Z,1017.18
2018-06-24T02:47:36.909Z,1017.23
2018-06-24T02:48:45.554Z,1017.22
2018-06-24T02:49:54.206Z,1017.2
2018-06-24T02:51:03.387Z,1017.22
2018-06-24T02:52:12.314Z,1017.2
2018-06-24T02:53:21.220Z,1017.21
2018-06-24T02:54:29.868Z,1017.18
2018-06-24T02:55:38.784Z,1017.2
2018-06-24T02:56:47.695Z,1017.21
2018-06-24T02:57:56.333Z,1017.22
2018-06-24T02:59:04.983Z,1017.19
2018-06-24T03:00:13.629Z,1017.23
2018-06-24T03:01:22.276Z,1017.21
2018-06-24T03:02:31.176Z,1017.2
2018-06-24T03:03:39.821Z,1017.21
2018-06-24T03:04:48.472Z,1017.21
2018-06-24T03:05:57.123Z,1017.15
2018-06-24T03:07:06.600Z,1017.18
2018-06-24T03:08:15.253Z,1017.21
2018-06-24T03:09:24.439Z,1017.14
2018-06-24T03:10:33.096Z,1017.14
2018-06-24T03:11:41.748Z,1017.14
2018-06-24T03:12:50.390Z,1017.15
2018-06-24T03:13:59.324Z,1017.17
2018-06-24T03:15:08.230Z,1017.21
2018-06-24T03:16:16.893Z,1017.21
2018-06-24T03:17:25.795Z,1017.22
2018-06-24T03:18:34.706Z,1017.22
2018-06-24T03:19:43.887Z,1017.21
2018-06-24T03:20:52.536Z,1017.23
2018-06-24T03:22:01.446Z,1017.23
2018-06-24T03:23:10.346Z,1017.25
2018-06-24T03:24:18.991Z,1017.22
2018-06-24T03:25:27.630Z,1017.21
2018-06-24T03:26:36.283Z,1017.22
2018-06-24T03:27:44.923Z,1017.22
2018-06-24T03:28:53.572Z,1017.2
2018-06-24T03:30:02.205Z,1017.17
2018-06-24T03:31:10.869Z,1017.16
2018-06-24T03:32:19.511Z,1017.18
2018-06-24T03:33:28.157Z,1017.21
2018-06-24T03:34:37.064Z,1017.22
2018-06-24T03:35:45.981Z,1017.22
2018-06-24T03:36:55.158Z,1017.25
2018-06-24T03:38:03.804Z,1017.24
2018-06-24T03:39:12.447Z,1017.26
2018-06-24T03:40:21.094Z,1017.29
2018-06-24T03:41:30.008Z,1017.27
2018-06-24T03:42:38.915Z,1017.23
2018-06-24T03:43:47.825Z,1017.24
2018-06-24T03:44:56.462Z,1017.24
2018-06-24T03:46:05.110Z,1017.2
2018-06-24T03:47:13.749Z,1017.21
2018-06-24T03:48:22.925Z,1017.21
2018-06-24T03:49:31.558Z,1017.24
2018-06-24T03:50:40.204Z,1017.25
2018-06-24T03:51:48.844Z,1017.22
2018-06-24T03:52:57.497Z,1017.2
2018-06-24T03:54:06.130Z,1017.19
2018-06-24T03:55:14.777Z,1017.15
2018-06-24T03:56:23.415Z,1017.15
2018-06-24T03:57:32.068Z,1017.13
2018-06-24T03:58:40.711Z,1017.15
2018-06-24T03:59:49.349Z,1017.17
2018-06-24T04:00:57.989Z,1017.16
2018-06-24T04:02:06.915Z,1017.12
2018-06-24T04:03:15.567Z,1017.14
2018-06-24T04:04:24.207Z,1017.15
2018-06-24T04:05:32.856Z,1017.14
2018-06-24T04:06:41.490Z,1017.17
2018-06-24T04:07:50.140Z,1017.19
2018-06-24T04:08:58.778Z,1017.13
2018-06-24T04:10:07.690Z,1017.13
2018-06-24T04:11:16.336Z,1017.09
2018-06-24T04:12:24.973Z,1017.11
2018-06-24T04:13:33.618Z,1017.1
2018-06-24T04:14:42.259Z,1017.06
2018-06-24T04:15:50.918Z,1017.11
2018-06-24T04:16:59.555Z,1017.11
2018-06-24T04:18:08.194Z,1017.12
2018-06-24T04:19:16.843Z,1017.12
2018-06-24T04:20:25.481Z,1017.15
2018-06-24T04:21:34.134Z,1017.12
2018-06-24T04:22:42.774Z,1017.18
2018-06-24T04:23:51.424Z,1017.17
2018-06-24T04:25:00.064Z,1017.15
2018-06-24T04:26:08.717Z,1017.13
2018-06-24T04:27:17.624Z,1017.16
2018-06-24T04:28:26.537Z,1017.15
2018-06-24T04:29:35.181Z,1017.16
2018-06-24T04:30:44.091Z,1017.18
2018-06-24T04:31:52.730Z,1017.22
2018-06-24T04:33:01.376Z,1017.22
2018-06-24T04:34:10.013Z,1017.26
2018-06-24T04:35:18.918Z,1017.26
2018-06-24T04:36:27.566Z,1017.31
2018-06-24T04:37:36.214Z,1017.33
2018-06-24T04:38:45.126Z,1017.31
2018-06-24T04:39:54.028Z,1017.35
2018-06-24T04:41:02.678Z,1017.37
2018-06-24T04:42:11.320Z,1017.35
2018-06-24T04:43:19.976Z,1017.34
2018-06-24T04:44:28.611Z,1017.34
2018-06-24T04:45:37.259Z,1017.34
2018-06-24T04:46:45.898Z,1017.32
2018-06-24T04:47:54.552Z,1017.31
2018-06-24T04:49:03.186Z,1017.37
2018-06-24T04:50:11.838Z,1017.35
2018-06-24T04:51:20.483Z,1017.34
2018-06-24T04:52:29.395Z,1017.36
2018-06-24T04:53:38.040Z,1017.35
2018-06-24T04:54:46.677Z,1017.34
2018-06-24T04:55:55.586Z,1017.36
2018-06-24T04:57:05.023Z,1017.36
2018-06-24T04:58:13.706Z,1017.4
2018-06-24T04:59:22.574Z,1017.41
2018-06-24T05:00:31.225Z,1017.39
2018-06-24T05:01:39.856Z,1017.42
2018-06-24T05:02:48.509Z,1017.41
2018-06-24T05:03:57.406Z,1017.41
2018-06-24T05:05:06.060Z,1017.43
2018-06-24T05:06:14.961Z,1017.46
2018-06-24T05:07:23.906Z,1017.44
2018-06-24T05:08:32.550Z,1017.41
2018-06-24T05:09:41.197Z,1017.44
2018-06-24T05:10:49.837Z,1017.43
2018-06-24T05:11:58.746Z,1017.41
2018-06-24T05:13:07.397Z,1017.44
2018-06-24T05:14:16.043Z,1017.47
2018-06-24T05:15:24.690Z,1017.51
2018-06-24T05:16:33.324Z,1017.5
2018-06-24T05:17:41.970Z,1017.5
2018-06-24T05:18:50.614Z,1017.5
2018-06-24T05:19:59.261Z,1017.51
2018-06-24T05:21:07.901Z,1017.48
2018-06-24T05:22:16.548Z,1017.46
2018-06-24T05:23:25.189Z,1017.47
2018-06-24T05:24:33.837Z,1017.48
2018-06-24T05:25:42.483Z,1017.48
2018-06-24T05:26:51.393Z,1017.48
2018-06-24T05:28:00.035Z,1017.49
2018-06-24T05:29:08.682Z,1017.52
2018-06-24T05:30:17.431Z,1017.52
2018-06-24T05:31:25.971Z,1017.54
2018-06-24T05:32:34.612Z,1017.54
2018-06-24T05:33:43.255Z,1017.59
2018-06-24T05:34:51.904Z,1017.57
2018-06-24T05:36:00.816Z,1017.6
2018-06-24T05:37:09.459Z,1017.56
2018-06-24T05:38:18.100Z,1017.56
2018-06-24T05:39:26.751Z,1017.56
2018-06-24T05:40:35.656Z,1017.53
2018-06-24T05:41:44.832Z,1017.56
2018-06-24T05:42:53.477Z,1017.57
2018-06-24T05:44:02.712Z,1017.56
2018-06-24T05:45:11.353Z,1017.6
2018-06-24T05:46:20.001Z,1017.59
2018-06-24T05:47:28.644Z,1017.59
2018-06-24T05:48:37.290Z,1017.6
2018-06-24T05:49:45.934Z,1017.57
2018-06-24T05:50:54.586Z,1017.57
2018-06-24T05:52:03.499Z,1017.52
2018-06-24T05:53:12.141Z,1017.55
2018-06-24T05:54:20.819Z,1017.58
2018-06-24T05:55:29.861Z,1017.56
2018-06-24T05:56:38.510Z,1017.62
2018-06-24T05:57:47.152Z,1017.61
2018-06-24T05:58:55.793Z,1017.59
2018-06-24T06:00:04.439Z,1017.64
2018-06-24T06:01:13.089Z,1017.6
2018-06-24T06:02:21.741Z,1017.58
2018-06-24T06:03:30.376Z,1017.52
2018-06-24T06:04:39.018Z,1017.63
2018-06-24T06:05:47.931Z,1017.62
2018-06-24T06:06:56.572Z,1017.64
2018-06-24T06:08:05.220Z,1017.65
2018-06-24T06:09:14.129Z,1017.66
2018-06-24T06:10:22.819Z,1017.66
2018-06-24T06:11:31.412Z,1017.67
2018-06-24T06:12:40.064Z,1017.65
2018-06-24T06:13:48.703Z,1017.66
2018-06-24T06:14:57.393Z,1017.65
2018-06-24T06:16:06.275Z,1017.65
2018-06-24T06:17:14.905Z,1017.67
2018-06-24T06:18:23.546Z,1017.66
2018-06-24T06:19:32.202Z,1017.66
2018-06-24T06:20:40.839Z,1017.63
2018-06-24T06:21:49.816Z,1017.62
2018-06-24T06:22:58.403Z,1017.62
2018-06-24T06:24:07.056Z,1017.58
2018-06-24T06:25:15.701Z,1017.63
2018-06-24T06:26:24.340Z,1017.61
2018-06-24T06:27:32.982Z,1017.61
2018-06-24T06:28:41.626Z,1017.64
2018-06-24T06:29:50.280Z,1017.65
2018-06-24T06:30:58.921Z,1017.68
2018-06-24T06:32:07.570Z,1017.68
2018-06-24T06:33:16.491Z,1017.67
2018-06-24T06:34:25.151Z,1017.66
2018-06-24T06:35:33.791Z,1017.67
2018-06-24T06:36:42.480Z,1017.65
2018-06-24T06:37:51.081Z,1017.62
2018-06-24T06:38:59.739Z,1017.67
2018-06-24T06:40:08.655Z,1017.67
2018-06-24T06:41:17.299Z,1017.72
2018-06-24T06:42:25.937Z,1017.74
2018-06-24T06:43:34.584Z,1017.74
2018-06-24T06:44:43.233Z,1017.78
2018-06-24T06:45:52.231Z,1017.79
2018-06-24T06:47:00.877Z,1017.73
2018-06-24T06:48:09.778Z,1017.74
2018-06-24T06:49:18.428Z,1017.73
2018-06-24T06:50:27.069Z,1017.69
2018-06-24T06:51:35.724Z,1017.76
2018-06-24T06:52:44.622Z,1017.75
2018-06-24T06:53:53.270Z,1017.77
2018-06-24T06:55:02.176Z,1017.78
2018-06-24T06:56:11.102Z,1017.75
2018-06-24T06:57:19.738Z,1017.77
2018-06-24T06:58:28.385Z,1017.79
2018-06-24T06:59:37.029Z,1017.8
2018-06-24T07:00:45.687Z,1017.78
2018-06-24T07:01:54.331Z,1017.8
2018-06-24T07:03:02.971Z,1017.8
2018-06-24T07:04:11.622Z,1017.77
2018-06-24T07:05:20.268Z,1017.8
2018-06-24T07:06:28.923Z,1017.81
2018-06-24T07:07:37.566Z,1017.82
2018-06-24T07:08:46.212Z,1017.82
2018-06-24T07:09:54.852Z,1017.84
2018-06-24T07:11:03.501Z,1017.79
2018-06-24T07:12:12.149Z,1017.8
2018-06-24T07:13:20.799Z,1017.82
2018-06-24T07:14:29.443Z,1017.8
2018-06-24T07:15:38.403Z,1017.84
2018-06-24T07:16:47.042Z,1017.83
2018-06-24T07:17:55.954Z,1017.84
2018-06-24T07:19:04.594Z,1017.85
2018-06-24T07:20:13.244Z,1017.9
2018-06-24T07:21:21.889Z,1017.9
2018-06-24T07:22:30.540Z,1017.93
2018-06-24T07:23:39.191Z,1017.94
2018-06-24T07:24:47.834Z,1017.98
2018-06-24T07:25:56.481Z,1017.98
2018-06-24T07:27:05.127Z,1018.01
2018-06-24T07:28:13.771Z,1018.02
2018-06-24T07:29:22.412Z,1017.99
2018-06-24T07:30:31.059Z,1017.96
2018-06-24T07:31:39.705Z,1017.95
2018-06-24T07:32:48.617Z,1017.97
2018-06-24T07:33:57.524Z,1017.96
2018-06-24T07:35:06.174Z,1017.95
2018-06-24T07:36:14.816Z,1017.94
2018-06-24T07:37:23.467Z,1017.92
2018-06-24T07:38:32.111Z,1017.92
2018-06-24T07:39:40.760Z,1017.93
2018-06-24T07:40:49.403Z,1017.9
2018-06-24T07:41:58.048Z,1017.89
2018-06-24T07:43:06.696Z,1017.9
2018-06-24T07:44:15.346Z,1017.93
2018-06-24T07:45:23.995Z,1017.93
2018-06-24T07:46:32.634Z,1017.84
2018-06-24T07:47:41.283Z,1017.89
2018-06-24T07:48:49.933Z,1017.86
2018-06-24T07:49:58.840Z,1017.88
2018-06-24T07:51:07.481Z,1017.85
2018-06-24T07:52:16.135Z,1017.85
2018-06-24T07:53:24.777Z,1017.85
2018-06-24T07:54:33.431Z,1017.86
2018-06-24T07:55:42.338Z,1017.82
2018-06-24T07:56:50.987Z,1017.81
2018-06-24T07:57:59.638Z,1017.82
2018-06-24T07:59:08.285Z,1017.83
2018-06-24T08:00:16.933Z,1017.79
2018-06-24T08:01:25.579Z,1017.83
2018-06-24T08:02:34.225Z,1017.79
2018-06-24T08:03:42.870Z,1017.79
2018-06-24T08:04:51.519Z,1017.81
2018-06-24T08:06:00.165Z,1017.76
2018-06-24T08:07:08.811Z,1017.81
2018-06-24T08:08:17.459Z,1017.75
2018-06-24T08:09:26.102Z,1017.8
2018-06-24T08:10:34.767Z,1017.81
2018-06-24T08:11:43.418Z,1017.76
2018-06-24T08:12:52.064Z,1017.8
2018-06-24T08:14:00.704Z,1017.77
2018-06-24T08:15:09.352Z,1017.75
2018-06-24T08:16:18.004Z,1017.73
2018-06-24T08:17:26.650Z,1017.77
2018-06-24T08:18:35.299Z,1017.77
2018-06-24T08:19:43.941Z,1017.86
2018-06-24T08:20:52.589Z,1017.84
2018-06-24T08:22:01.235Z,1017.82
2018-06-24T08:23:09.889Z,1017.8
2018-06-24T08:24:18.533Z,1017.79
2018-06-24T08:25:27.181Z,1017.82
2018-06-24T08:26:35.831Z,1017.8
2018-06-24T08:27:44.484Z,1017.82
2018-06-24T08:28:53.125Z,1017.83
2018-06-24T08:30:02.046Z,1017.82
2018-06-24T08:31:10.691Z,1017.85
2018-06-24T08:32:19.608Z,1017.86
2018-06-24T08:33:28.253Z,1017.89
2018-06-24T08:34:36.899Z,1017.86
2018-06-24T08:35:45.546Z,1017.91
2018-06-24T08:36:54.465Z,1017.92
2018-06-24T08:38:03.382Z,1017.92
2018-06-24T08:39:12.296Z,1017.89
2018-06-24T08:40:20.944Z,1017.95
2018-06-24T08:41:29.588Z,1017.93
2018-06-24T08:42:38.234Z,1017.94
2018-06-24T08:43:47.149Z,1017.89
2018-06-24T08:44:55.796Z,1017.94
2018-06-24T08:46:04.707Z,1017.95
2018-06-24T08:47:13.403Z,1017.88
2018-06-24T08:48:22.003Z,1017.95
2018-06-24T08:49:30.652Z,1017.98
2018-06-24T08:50:39.297Z,1017.95
2018-06-24T08:51:48.209Z,1017.96
2018-06-24T08:52:56.854Z,1017.98
2018-06-24T08:54:05.504Z,1017.98
2018-06-24T08:55:14.157Z,1017.99
2018-06-24T08:56:22.797Z,1017.97
2018-06-24T08:57:31.448Z,1017.93
2018-06-24T08:58:40.096Z,1017.93
2018-06-24T08:59:48.749Z,1017.96
2018-06-24T09:00:57.390Z,1017.92
2018-06-24T09:02:06.039Z,1017.97
2018-06-24T09:03:14.947Z,1017.94
2018-06-24T09:04:23.625Z,1017.93
2018-06-24T09:05:32.237Z,1017.9
2018-06-24T09:06:41.148Z,1017.92
2018-06-24T09:07:49.795Z,1017.9
2018-06-24T09:08:58.452Z,1017.88
2018-06-24T09:10:07.095Z,1017.9
2018-06-24T09:11:15.737Z,1017.9
2018-06-24T09:12:24.381Z,1017.94
2018-06-24T09:13:33.030Z,1017.92
2018-06-24T09:14:41.681Z,1017.91
2018-06-24T09:15:50.376Z,1017.97
2018-06-24T09:16:58.980Z,1017.92
2018-06-24T09:18:07.621Z,1017.97
2018-06-24T09:19:16.273Z,1017.97
2018-06-24T09:20:25.184Z,1017.98
2018-06-24T09:21:33.834Z,1017.98
2018-06-24T09:22:42.474Z,1017.99
2018-06-24T09:23:51.128Z,1018.01
2018-06-24T09:25:00.046Z,1018
2018-06-24T09:26:08.958Z,1017.96
2018-06-24T09:27:17.595Z,1017.96
2018-06-24T09:28:26.243Z,1017.96
2018-06-24T09:29:34.896Z,1017.99
2018-06-24T09:30:43.551Z,1018.01
2018-06-24T09:31:52.538Z,1018.02
2018-06-24T09:33:01.176Z,1017.95
2018-06-24T09:34:09.833Z,1017.97
2018-06-24T09:35:18.731Z,1017.96
2018-06-24T09:36:27.916Z,1017.93
2018-06-24T09:37:36.555Z,1017.94
2018-06-24T09:38:45.210Z,1017.97
2018-06-24T09:39:54.111Z,1017.95
2018-06-24T09:41:02.814Z,1017.96
2018-06-24T09:42:11.406Z,1017.96
2018-06-24T09:43:20.057Z,1017.96
2018-06-24T09:44:28.702Z,1017.92
2018-06-24T09:45:37.356Z,1017.92
2018-06-24T09:46:46.001Z,1017.91
2018-06-24T09:47:54.647Z,1017.9
2018-06-24T09:49:03.289Z,1017.89
2018-06-24T09:50:11.934Z,1017.88
2018-06-24T09:51:20.864Z,1017.89
2018-06-24T09:52:29.508Z,1017.9
2018-06-24T09:53:38.161Z,1017.96
2018-06-24T09:54:46.798Z,1017.91
2018-06-24T09:55:55.455Z,1017.92
2018-06-24T09:57:04.104Z,1017.95
2018-06-24T09:58:13.021Z,1017.96
2018-06-24T09:59:21.921Z,1017.99
2018-06-24T10:00:30.578Z,1017.94
2018-06-24T10:01:39.485Z,1017.97
2018-06-24T10:02:48.132Z,1017.94
2018-06-24T10:03:56.774Z,1017.95
2018-06-24T10:05:05.425Z,1017.97
2018-06-24T10:06:14.072Z,1018
2018-06-24T10:07:22.730Z,1018.05
2018-06-24T10:08:31.377Z,1018.05
2018-06-24T10:09:40.021Z,1018.08
2018-06-24T10:10:48.667Z,1018.05
2018-06-24T10:11:57.315Z,1017.99
2018-06-24T10:13:05.967Z,1017.98
2018-06-24T10:14:14.612Z,1018.05
2018-06-24T10:15:23.260Z,1018.04
2018-06-24T10:16:31.908Z,1018.05
2018-06-24T10:17:40.562Z,1018.03
2018-06-24T10:18:49.204Z,1018
2018-06-24T10:19:57.854Z,1018.03
2018-06-24T10:21:06.501Z,1018.03
2018-06-24T10:22:15.154Z,1017.97
2018-06-24T10:23:23.797Z,1018.02
2018-06-24T10:24:32.444Z,1018.05
2018-06-24T10:25:41.099Z,1018.02
2018-06-24T10:26:50.018Z,1017.99
2018-06-24T10:27:58.670Z,1017.98
2018-06-24T10:29:07.586Z,1018.02
2018-06-24T10:30:16.238Z,1018.01
2018-06-24T10:31:25.153Z,1018
2018-06-24T10:32:34.351Z,1018.01
2018-06-24T10:33:43.550Z,1018.03
2018-06-24T10:34:52.197Z,1018.02
2018-06-24T10:36:00.839Z,1018.01
2018-06-24T10:37:09.501Z,1018.06
2018-06-24T10:38:18.143Z,1018.08
2018-06-24T10:39:26.793Z,1018.06
2018-06-24T10:40:35.435Z,1018.06
2018-06-24T10:41:44.086Z,1018.14
2018-06-24T10:42:52.734Z,1018.07
2018-06-24T10:44:01.383Z,1018.09
2018-06-24T10:45:10.036Z,1018.09
2018-06-24T10:46:18.678Z,1018.06
2018-06-24T10:47:27.325Z,1018.03
2018-06-24T10:48:36.235Z,1018.05
2018-06-24T10:49:45.149Z,1018.06
2018-06-24T10:50:53.793Z,1018.07
2018-06-24T10:52:02.438Z,1018.09
2018-06-24T10:53:11.085Z,1018.07
2018-06-24T10:54:19.735Z,1018.05
2018-06-24T10:55:28.376Z,1018.07
2018-06-24T10:56:37.023Z,1018.04
2018-06-24T10:57:45.668Z,1017.99
2018-06-24T10:58:54.318Z,1017.99
2018-06-24T11:00:02.963Z,1017.97
2018-06-24T11:01:11.616Z,1018.03
2018-06-24T11:02:20.313Z,1018.04
2018-06-24T11:03:28.900Z,1018.01
2018-06-24T11:04:37.820Z,1017.99
2018-06-24T11:05:46.461Z,1017.95
2018-06-24T11:06:55.110Z,1017.98
2018-06-24T11:08:03.749Z,1017.95
2018-06-24T11:09:12.681Z,1017.94
2018-06-24T11:10:21.324Z,1017.93
2018-06-24T11:11:29.973Z,1017.91
2018-06-24T11:12:38.611Z,1017.93
2018-06-24T11:13:47.274Z,1017.92
2018-06-24T11:14:55.915Z,1017.94
2018-06-24T11:16:04.563Z,1017.91
2018-06-24T11:17:13.205Z,1017.94
2018-06-24T11:18:21.857Z,1017.95
2018-06-24T11:19:30.506Z,1017.88
2018-06-24T11:20:39.157Z,1017.88
2018-06-24T11:21:47.840Z,1017.9
2018-06-24T11:22:56.446Z,1017.89
2018-06-24T11:24:05.098Z,1017.91
2018-06-24T11:25:13.742Z,1017.91
2018-06-24T11:26:22.396Z,1017.91
2018-06-24T11:27:31.034Z,1017.93
2018-06-24T11:28:39.685Z,1017.9
2018-06-24T11:29:48.328Z,1017.89
2018-06-24T11:30:57.254Z,1017.88
2018-06-24T11:32:05.894Z,1017.88
2018-06-24T11:33:14.541Z,1017.93
2018-06-24T11:34:23.189Z,1017.91
2018-06-24T11:35:32.113Z,1017.89
2018-06-24T11:36:40.759Z,1017.91
2018-06-24T11:37:49.402Z,1017.92
2018-06-24T11:38:58.317Z,1017.88
2018-06-24T11:40:06.962Z,1017.85
2018-06-24T11:41:15.620Z,1017.86
2018-06-24T11:42:24.264Z,1017.85
2018-06-24T11:43:33.182Z,1017.81
2018-06-24T11:44:42.087Z,1017.83
2018-06-24T11:45:51.007Z,1017.85
2018-06-24T11:46:59.913Z,1017.81
2018-06-24T11:48:08.564Z,1017.81
2018-06-24T11:49:17.207Z,1017.81
2018-06-24T11:50:25.863Z,1017.79
2018-06-24T11:51:34.512Z,1017.81
2018-06-24T11:52:43.159Z,1017.84
2018-06-24T11:53:51.797Z,1017.8
2018-06-24T11:55:00.445Z,1017.81
2018-06-24T11:56:09.106Z,1017.83
2018-06-24T11:57:17.750Z,1017.81
2018-06-24T11:58:26.399Z,1017.78
2018-06-24T11:59:35.038Z,1017.76
2018-06-24T12:00:43.688Z,1017.78
2018-06-24T12:01:52.356Z,1017.75
2018-06-24T12:03:00.980Z,1017.75
2018-06-24T12:04:09.667Z,1017.73
2018-06-24T12:05:18.288Z,1017.76
2018-06-24T12:06:27.209Z,1017.74
2018-06-24T12:07:35.849Z,1017.75
2018-06-24T12:08:44.507Z,1017.78
2018-06-24T12:09:53.502Z,1017.74
2018-06-24T12:11:02.066Z,1017.73
2018-06-24T12:12:11.232Z,1017.72
2018-06-24T12:13:19.882Z,1017.72
2018-06-24T12:14:28.530Z,1017.71
2018-06-24T12:15:37.180Z,1017.73
2018-06-24T12:16:45.831Z,1017.68
2018-06-24T12:17:54.473Z,1017.72
2018-06-24T12:19:03.394Z,1017.7
2018-06-24T12:20:12.038Z,1017.71
2018-06-24T12:21:20.962Z,1017.69
2018-06-24T12:22:29.603Z,1017.73
2018-06-24T12:23:38.262Z,1017.7
2018-06-24T12:24:46.903Z,1017.68
2018-06-24T12:25:55.562Z,1017.66
2018-06-24T12:27:04.201Z,1017.65
2018-06-24T12:28:12.852Z,1017.62
2018-06-24T12:29:21.761Z,1017.58
2018-06-24T12:30:30.422Z,1017.62
2018-06-24T12:31:39.332Z,1017.52
2018-06-24T12:32:48.243Z,1017.58
2018-06-24T12:33:56.888Z,1017.58
2018-06-24T12:35:05.536Z,1017.56
2018-06-24T12:36:14.192Z,1017.56
2018-06-24T12:37:22.892Z,1017.52
2018-06-24T12:38:31.488Z,1017.52
2018-06-24T12:39:40.387Z,1017.52
2018-06-24T12:40:49.045Z,1017.5
2018-06-24T12:41:57.689Z,1017.5
2018-06-24T12:43:06.347Z,1017.49
2018-06-24T12:44:14.989Z,1017.48
2018-06-24T12:45:23.912Z,1017.49
2018-06-24T12:46:32.557Z,1017.46
2018-06-24T12:47:41.210Z,1017.48
2018-06-24T12:48:49.848Z,1017.48
2018-06-24T12:49:58.498Z,1017.46
2018-06-24T12:51:07.150Z,1017.5
2018-06-24T12:52:15.800Z,1017.48
2018-06-24T12:53:24.451Z,1017.48
2018-06-24T12:54:33.090Z,1017.51
2018-06-24T12:55:41.744Z,1017.44
2018-06-24T12:56:50.386Z,1017.44
2018-06-24T12:57:59.039Z,1017.43
2018-06-24T12:59:07.939Z,1017.49
2018-06-24T13:00:17.650Z,1017.38
2018-06-24T13:01:27.081Z,1017.44
2018-06-24T13:02:35.735Z,1017.4
2018-06-24T13:03:44.377Z,1017.42
2018-06-24T13:04:53.027Z,1017.4
2018-06-24T13:06:01.672Z,1017.39
2018-06-24T13:07:10.333Z,1017.43
2018-06-24T13:08:18.979Z,1017.45
2018-06-24T13:09:27.888Z,1017.42
2018-06-24T13:10:36.801Z,1017.38
2018-06-24T13:11:45.707Z,1017.42
2018-06-24T13:12:54.363Z,1017.35
2018-06-24T13:14:03.273Z,1017.43
2018-06-24T13:15:12.253Z,1017.41
2018-06-24T13:16:21.161Z,1017.4
2018-06-24T13:17:29.814Z,1017.44
2018-06-24T13:18:38.460Z,1017.39
2018-06-24T13:19:47.110Z,1017.37
2018-06-24T13:20:56.019Z,1017.44
2018-06-24T13:22:04.668Z,1017.41
2018-06-24T13:23:13.311Z,1017.48
2018-06-24T13:24:21.969Z,1017.44
2018-06-24T13:25:30.608Z,1017.45
2018-06-24T13:26:39.307Z,1017.43
2018-06-24T13:27:47.917Z,1017.41
2018-06-24T13:28:56.827Z,1017.43
2018-06-24T13:30:05.477Z,1017.46
2018-06-24T13:31:14.388Z,1017.45
2018-06-24T13:32:23.037Z,1017.45
2018-06-24T13:33:31.682Z,1017.45
2018-06-24T13:34:40.333Z,1017.45
2018-06-24T13:35:49.239Z,1017.43
2018-06-24T13:36:57.887Z,1017.4
2018-06-24T13:38:06.797Z,1017.37
2018-06-24T13:39:15.721Z,1017.4
2018-06-24T13:40:24.377Z,1017.44
2018-06-24T13:41:33.017Z,1017.41
2018-06-24T13:42:41.924Z,1017.37
2018-06-24T13:43:50.576Z,1017.34
2018-06-24T13:44:59.225Z,1017.4
2018-06-24T13:46:07.874Z,1017.37
2018-06-24T13:47:16.786Z,1017.44
2018-06-24T13:48:25.431Z,1017.39
2018-06-24T13:49:34.090Z,1017.41
2018-06-24T13:50:42.991Z,1017.42
2018-06-24T13:51:51.640Z,1017.37
2018-06-24T13:53:00.282Z,1017.41
2018-06-24T13:54:09.199Z,1017.43